sensor_id;sensor_type;location;lat;lon;timestamp;pressure;altitude;pressure_sealevel;temperature;humidity
66668;BME280;57205;51.438;-2.006;2023-11-21T00:00:51;100947.72;;;9.84;100.00
66668;BME280;57205;51.438;-2.006;2023-11-21T00:03:17;100951.22;;;9.84;100.00
66668;BME280;57205;51.438;-2.006;2023-11-21T00:05:42;100952.50;;;9.82;100.00
66668;BME280;57205;51.438;-2.006;2023-11-21T00:08:08;100958.16;;;9.85;100.00
66668;BME280;57205;51.438;-2.006;2023-11-21T00:10:34;100959.44;;;9.83;100.00
66668;BME280;57205;51.438;-2.006;2023-11-21T00:13:00;100955.13;;;9.77;100.00
66668;BME280;57205;51.438;-2.006;2023-11-21T00:15:27;100953.75;;;9.74;100.00
66668;BME280;57205;51.438;-2.006;2023-11-21T00:17:53;100954.56;;;9.75;100.00
66668;BME280;57205;51.438;-2.006;2023-11-21T00:20:18;100949.78;;;9.77;100.00
66668;BME280;57205;51.438;-2.006;2023-11-21T00:22:44;100956.69;;;9.73;100.00
66668;BME280;57205;51.438;-2.006;2023-11-21T00:25:10;100957.72;;;9.72;100.00
66668;BME280;57205;51.438;-2.006;2023-11-21T00:27:36;100961.47;;;9.71;100.00
66668;BME280;57205;51.438;-2.006;2023-11-21T00:30:02;100968.63;;;9.65;100.00
66668;BME280;57205;51.438;-2.006;2023-11-21T00:32:29;100970.22;;;9.66;100.00
66668;BME280;57205;51.438;-2.006;2023-11-21T00:34:55;100974.22;;;9.64;100.00
66668;BME280;57205;51.438;-2.006;2023-11-21T00:37:20;100980.13;;;9.66;100.00
66668;BME280;57205;51.438;-2.006;2023-11-21T00:39:46;100991.28;;;9.63;100.00
66668;BME280;57205;51.438;-2.006;2023-11-21T00:42:11;100986.44;;;9.60;100.00
66668;BME280;57205;51.438;-2.006;2023-11-21T00:44:40;100989.69;;;9.62;100.00
66668;BME280;57205;51.438;-2.006;2023-11-21T00:47:05;100997.94;;;9.60;100.00
66668;BME280;57205;51.438;-2.006;2023-11-21T00:49:31;100993.94;;;9.63;100.00
66668;BME280;57205;51.438;-2.006;2023-11-21T00:51:57;100996.38;;;9.64;100.00
66668;BME280;57205;51.438;-2.006;2023-11-21T00:54:23;101001.72;;;9.64;100.00
66668;BME280;57205;51.438;-2.006;2023-11-21T00:56:49;101007.06;;;9.64;100.00
66668;BME280;57205;51.438;-2.006;2023-11-21T00:59:14;101009.50;;;9.66;100.00
66668;BME280;57205;51.438;-2.006;2023-11-21T01:01:39;101005.50;;;9.68;100.00
66668;BME280;57205;51.438;-2.006;2023-11-21T01:04:06;101013.78;;;9.67;100.00
66668;BME280;57205;51.438;-2.006;2023-11-21T01:06:32;101012.19;;;9.66;100.00
66668;BME280;57205;51.438;-2.006;2023-11-21T01:08:58;101017.75;;;9.64;100.00
66668;BME280;57205;51.438;-2.006;2023-11-21T01:11:24;101016.72;;;9.65;100.00
66668;BME280;57205;51.438;-2.006;2023-11-21T01:13:49;101021.50;;;9.63;100.00
66668;BME280;57205;51.438;-2.006;2023-11-21T01:16:15;101020.94;;;9.61;100.00
66668;BME280;57205;51.438;-2.006;2023-11-21T01:18:40;101025.44;;;9.61;100.00
66668;BME280;57205;51.438;-2.006;2023-11-21T01:21:05;101026.25;;;9.61;100.00
66668;BME280;57205;51.438;-2.006;2023-11-21T01:23:32;101031.63;;;9.61;100.00
66668;BME280;57205;51.438;-2.006;2023-11-21T01:25:58;101036.94;;;9.61;100.00
66668;BME280;57205;51.438;-2.006;2023-11-21T01:28:23;101042.31;;;9.61;100.00
66668;BME280;57205;51.438;-2.006;2023-11-21T01:30:49;101049.75;;;9.59;100.00
66668;BME280;57205;51.438;-2.006;2023-11-21T01:33:14;101055.91;;;9.60;100.00
66668;BME280;57205;51.438;-2.006;2023-11-21T01:35:41;101064.97;;;9.59;100.00
66668;BME280;57205;51.438;-2.006;2023-11-21T01:38:07;101066.59;;;9.60;100.00
66668;BME280;57205;51.438;-2.006;2023-11-21T01:40:33;101074.59;;;9.60;100.00
66668;BME280;57205;51.438;-2.006;2023-11-21T01:43:00;101086.34;;;9.59;100.00
66668;BME280;57205;51.438;-2.006;2023-11-21T01:45:29;101087.16;;;9.59;100.00
66668;BME280;57205;51.438;-2.006;2023-11-21T01:47:56;101083.09;;;9.57;100.00
66668;BME280;57205;51.438;-2.006;2023-11-21T01:50:22;101090.06;;;9.58;100.00
66668;BME280;57205;51.438;-2.006;2023-11-21T01:52:48;101086.84;;;9.56;100.00
66668;BME280;57205;51.438;-2.006;2023-11-21T01:55:16;101101.00;;;9.56;100.00
66668;BME280;57205;51.438;-2.006;2023-11-21T01:57:43;101100.75;;;9.58;100.00
66668;BME280;57205;51.438;-2.006;2023-11-21T02:00:09;101104.47;;;9.57;100.00
66668;BME280;57205;51.438;-2.006;2023-11-21T02:02:47;101101.25;;;9.55;100.00
66668;BME280;57205;51.438;-2.006;2023-11-21T02:05:15;101114.06;;;9.53;100.00
66668;BME280;57205;51.438;-2.006;2023-11-21T02:07:43;101121.81;;;9.54;100.00
66668;BME280;57205;51.438;-2.006;2023-11-21T02:10:09;101122.63;;;9.55;100.00
66668;BME280;57205;51.438;-2.006;2023-11-21T02:12:35;101130.09;;;9.53;100.00
66668;BME280;57205;51.438;-2.006;2023-11-21T02:15:05;101138.41;;;9.56;100.00
66668;BME280;57205;51.438;-2.006;2023-11-21T02:17:35;101140.25;;;9.56;100.00
66668;BME280;57205;51.438;-2.006;2023-11-21T02:20:01;101137.59;;;9.56;100.00
66668;BME280;57205;51.438;-2.006;2023-11-21T02:22:30;101144.53;;;9.57;100.00
66668;BME280;57205;51.438;-2.006;2023-11-21T02:24:57;101148.78;;;9.53;100.00
66668;BME280;57205;51.438;-2.006;2023-11-21T02:27:24;101146.69;;;9.55;100.00
66668;BME280;57205;51.438;-2.006;2023-11-21T02:29:50;101156.78;;;9.53;100.00
66668;BME280;57205;51.438;-2.006;2023-11-21T02:32:17;101149.56;;;9.53;100.00
66668;BME280;57205;51.438;-2.006;2023-11-21T02:34:44;101147.72;;;9.54;100.00
66668;BME280;57205;51.438;-2.006;2023-11-21T02:37:10;101150.38;;;9.54;100.00
66668;BME280;57205;51.438;-2.006;2023-11-21T02:39:35;101146.91;;;9.53;100.00
66668;BME280;57205;51.438;-2.006;2023-11-21T02:42:01;101150.06;;;9.50;100.00
66668;BME280;57205;51.438;-2.006;2023-11-21T02:44:26;101151.13;;;9.49;100.00
66668;BME280;57205;51.438;-2.006;2023-11-21T02:46:51;101158.34;;;9.49;100.00
66668;BME280;57205;51.438;-2.006;2023-11-21T02:49:17;101163.09;;;9.47;100.00
66668;BME280;57205;51.438;-2.006;2023-11-21T02:51:43;101157.75;;;9.47;100.00
66668;BME280;57205;51.438;-2.006;2023-11-21T02:54:08;101166.81;;;9.46;100.00
66668;BME280;57205;51.438;-2.006;2023-11-21T02:56:34;101161.00;;;9.49;100.00
66668;BME280;57205;51.438;-2.006;2023-11-21T02:59:00;101163.91;;;9.47;100.00
66668;BME280;57205;51.438;-2.006;2023-11-21T03:01:26;101165.22;;;9.45;100.00
66668;BME280;57205;51.438;-2.006;2023-11-21T03:03:51;101172.97;;;9.46;100.00
66668;BME280;57205;51.438;-2.006;2023-11-21T03:06:20;101172.16;;;9.46;100.00
66668;BME280;57205;51.438;-2.006;2023-11-21T03:08:46;101179.38;;;9.45;100.00
66668;BME280;57205;51.438;-2.006;2023-11-21T03:11:12;101178.31;;;9.46;100.00
66668;BME280;57205;51.438;-2.006;2023-11-21T03:13:41;101181.81;;;9.47;100.00
66668;BME280;57205;51.438;-2.006;2023-11-21T03:16:10;101189.81;;;9.47;100.00
66668;BME280;57205;51.438;-2.006;2023-11-21T03:18:37;101194.91;;;9.48;100.00
66668;BME280;57205;51.438;-2.006;2023-11-21T03:21:06;101195.81;;;9.54;100.00
66668;BME280;57205;51.438;-2.006;2023-11-21T03:23:36;101200.31;;;9.53;100.00
66668;BME280;57205;51.438;-2.006;2023-11-21T03:26:02;101200.31;;;9.53;100.00
66668;BME280;57205;51.438;-2.006;2023-11-21T03:28:27;101203.31;;;9.57;100.00
66668;BME280;57205;51.438;-2.006;2023-11-21T03:30:53;101203.88;;;9.59;100.00
66668;BME280;57205;51.438;-2.006;2023-11-21T03:33:19;101207.94;;;9.61;100.00
66668;BME280;57205;51.438;-2.006;2023-11-21T03:35:45;101208.19;;;9.60;100.00
66668;BME280;57205;51.438;-2.006;2023-11-21T03:38:11;101214.09;;;9.62;100.00
66668;BME280;57205;51.438;-2.006;2023-11-21T03:40:39;101218.69;;;9.66;100.00
66668;BME280;57205;51.438;-2.006;2023-11-21T03:43:07;101222.75;;;9.69;100.00
66668;BME280;57205;51.438;-2.006;2023-11-21T03:45:33;101218.47;;;9.68;100.00
66668;BME280;57205;51.438;-2.006;2023-11-21T03:47:58;101227.28;;;9.68;100.00
66668;BME280;57205;51.438;-2.006;2023-11-21T03:50:27;101236.13;;;9.69;100.00
66668;BME280;57205;51.438;-2.006;2023-11-21T03:52:52;101233.19;;;9.70;100.00
66668;BME280;57205;51.438;-2.006;2023-11-21T03:55:18;101234.53;;;9.68;100.00
66668;BME280;57205;51.438;-2.006;2023-11-21T03:57:43;101243.06;;;9.70;100.00
66668;BME280;57205;51.438;-2.006;2023-11-21T04:00:09;101247.38;;;9.71;100.00
66668;BME280;57205;51.438;-2.006;2023-11-21T04:02:35;101246.31;;;9.72;100.00
66668;BME280;57205;51.438;-2.006;2023-11-21T04:05:00;101255.41;;;9.71;100.00
66668;BME280;57205;51.438;-2.006;2023-11-21T04:07:26;101251.50;;;9.78;100.00
66668;BME280;57205;51.438;-2.006;2023-11-21T04:09:52;101258.47;;;9.79;100.00
66668;BME280;57205;51.438;-2.006;2023-11-21T04:12:19;101253.13;;;9.79;100.00
66668;BME280;57205;51.438;-2.006;2023-11-21T04:14:44;101264.06;;;9.78;100.00
66668;BME280;57205;51.438;-2.006;2023-11-21T04:17:09;101267.22;;;9.75;100.00
66668;BME280;57205;51.438;-2.006;2023-11-21T04:19:35;101275.25;;;9.75;100.00
66668;BME280;57205;51.438;-2.006;2023-11-21T04:22:01;101273.34;;;9.75;100.00
66668;BME280;57205;51.438;-2.006;2023-11-21T04:24:26;101266.16;;;9.76;100.00
66668;BME280;57205;51.438;-2.006;2023-11-21T04:26:52;101265.59;;;9.74;100.00
66668;BME280;57205;51.438;-2.006;2023-11-21T04:29:18;101266.16;;;9.76;100.00
66668;BME280;57205;51.438;-2.006;2023-11-21T04:31:44;101280.09;;;9.78;100.00
66668;BME280;57205;51.438;-2.006;2023-11-21T04:34:09;101273.59;;;9.74;100.00
66668;BME280;57205;51.438;-2.006;2023-11-21T04:36:34;101280.03;;;9.73;100.00
66668;BME280;57205;51.438;-2.006;2023-11-21T04:39:00;101284.53;;;9.72;100.00
66668;BME280;57205;51.438;-2.006;2023-11-21T04:41:26;101298.16;;;9.71;100.00
66668;BME280;57205;51.438;-2.006;2023-11-21T04:43:51;101304.06;;;9.73;100.00
66668;BME280;57205;51.438;-2.006;2023-11-21T04:46:17;101305.34;;;9.70;100.00
66668;BME280;57205;51.438;-2.006;2023-11-21T04:48:42;101298.66;;;9.68;100.00
66668;BME280;57205;51.438;-2.006;2023-11-21T04:51:08;101300.19;;;9.64;100.00
66668;BME280;57205;51.438;-2.006;2023-11-21T04:53:34;101306.56;;;9.63;100.00
66668;BME280;57205;51.438;-2.006;2023-11-21T04:56:00;101305.72;;;9.62;100.00
66668;BME280;57205;51.438;-2.006;2023-11-21T04:58:25;101315.31;;;9.58;100.00
66668;BME280;57205;51.438;-2.006;2023-11-21T05:00:51;101330.53;;;9.58;100.00
66668;BME280;57205;51.438;-2.006;2023-11-21T05:03:16;101330.44;;;9.53;100.00
66668;BME280;57205;51.438;-2.006;2023-11-21T05:05:42;101338.91;;;9.50;100.00
66668;BME280;57205;51.438;-2.006;2023-11-21T05:08:07;101343.09;;;9.46;100.00
66668;BME280;57205;51.438;-2.006;2023-11-21T05:10:33;101342.00;;;9.42;100.00
66668;BME280;57205;51.438;-2.006;2023-11-21T05:12:59;101343.25;;;9.39;100.00
66668;BME280;57205;51.438;-2.006;2023-11-21T05:15:24;101351.53;;;9.38;100.00
66668;BME280;57205;51.438;-2.006;2023-11-21T05:17:50;101356.84;;;9.38;100.00
66668;BME280;57205;51.438;-2.006;2023-11-21T05:20:17;101353.63;;;9.36;100.00
66668;BME280;57205;51.438;-2.006;2023-11-21T05:22:46;101355.72;;;9.34;100.00
66668;BME280;57205;51.438;-2.006;2023-11-21T05:25:11;101354.31;;;9.31;100.00
66668;BME280;57205;51.438;-2.006;2023-11-21T05:27:37;101361.41;;;9.26;100.00
66668;BME280;57205;51.438;-2.006;2023-11-21T05:30:04;101359.22;;;9.23;100.00
66668;BME280;57205;51.438;-2.006;2023-11-21T05:32:37;101363.16;;;9.20;100.00
66668;BME280;57205;51.438;-2.006;2023-11-21T05:35:02;101368.75;;;9.19;100.00
66668;BME280;57205;51.438;-2.006;2023-11-21T05:37:28;101371.66;;;9.17;100.00
66668;BME280;57205;51.438;-2.006;2023-11-21T05:39:54;101378.28;;;9.15;100.00
66668;BME280;57205;51.438;-2.006;2023-11-21T05:42:22;101385.72;;;9.13;100.00
66668;BME280;57205;51.438;-2.006;2023-11-21T05:44:48;101390.59;;;9.16;100.00
66668;BME280;57205;51.438;-2.006;2023-11-21T05:47:14;101393.16;;;9.11;100.00
66668;BME280;57205;51.438;-2.006;2023-11-21T05:49:40;101384.56;;;9.09;100.00
66668;BME280;57205;51.438;-2.006;2023-11-21T05:52:05;101389.91;;;9.09;100.00
66668;BME280;57205;51.438;-2.006;2023-11-21T05:54:31;101394.44;;;9.08;100.00
66668;BME280;57205;51.438;-2.006;2023-11-21T05:56:57;101395.72;;;9.06;100.00
66668;BME280;57205;51.438;-2.006;2023-11-21T05:59:23;101402.56;;;9.02;100.00
66668;BME280;57205;51.438;-2.006;2023-11-21T06:01:48;101415.22;;;9.06;100.00
66668;BME280;57205;51.438;-2.006;2023-11-21T06:04:13;101414.97;;;9.08;100.00
66668;BME280;57205;51.438;-2.006;2023-11-21T06:06:39;101408.03;;;9.07;100.00
66668;BME280;57205;51.438;-2.006;2023-11-21T06:09:05;101413.56;;;9.05;100.00
66668;BME280;57205;51.438;-2.006;2023-11-21T06:11:37;101423.22;;;9.06;100.00
66668;BME280;57205;51.438;-2.006;2023-11-21T06:14:02;101424.84;;;9.07;100.00
66668;BME280;57205;51.438;-2.006;2023-11-21T06:16:28;101424.84;;;9.07;100.00
66668;BME280;57205;51.438;-2.006;2023-11-21T06:18:54;101430.19;;;9.07;100.00
66668;BME280;57205;51.438;-2.006;2023-11-21T06:21:19;101434.59;;;9.02;100.00
66668;BME280;57205;51.438;-2.006;2023-11-21T06:23:45;101442.38;;;9.03;100.00
66668;BME280;57205;51.438;-2.006;2023-11-21T06:26:10;101444.44;;;9.01;100.00
66668;BME280;57205;51.438;-2.006;2023-11-21T06:28:36;101442.84;;;9.00;100.00
66668;BME280;57205;51.438;-2.006;2023-11-21T06:31:02;101439.34;;;9.00;100.00
66668;BME280;57205;51.438;-2.006;2023-11-21T06:33:33;101444.09;;;8.98;100.00
66668;BME280;57205;51.438;-2.006;2023-11-21T06:35:59;101446.00;;;8.97;100.00
66668;BME280;57205;51.438;-2.006;2023-11-21T06:38:28;101448.41;;;8.99;100.00
66668;BME280;57205;51.438;-2.006;2023-11-21T06:40:56;101446.56;;;8.99;100.00
66668;BME280;57205;51.438;-2.006;2023-11-21T06:43:22;101452.69;;;9.00;100.00
66668;BME280;57205;51.438;-2.006;2023-11-21T06:45:47;101449.44;;;8.98;100.00
66668;BME280;57205;51.438;-2.006;2023-11-21T06:48:13;101457.00;;;9.01;100.00
66668;BME280;57205;51.438;-2.006;2023-11-21T06:50:38;101458.63;;;9.02;100.00
66668;BME280;57205;51.438;-2.006;2023-11-21T06:53:04;101461.75;;;8.99;100.00
66668;BME280;57205;51.438;-2.006;2023-11-21T06:55:32;101470.81;;;8.98;100.00
66668;BME280;57205;51.438;-2.006;2023-11-21T06:57:57;101462.59;;;8.99;100.00
66668;BME280;57205;51.438;-2.006;2023-11-21T07:00:23;101477.78;;;8.99;100.00
66668;BME280;57205;51.438;-2.006;2023-11-21T07:02:49;101473.47;;;8.98;100.00
66668;BME280;57205;51.438;-2.006;2023-11-21T07:05:14;101482.53;;;8.97;100.00
66668;BME280;57205;51.438;-2.006;2023-11-21T07:07:40;101482.44;;;8.92;100.00
66668;BME280;57205;51.438;-2.006;2023-11-21T07:10:06;101487.97;;;8.90;100.00
66668;BME280;57205;51.438;-2.006;2023-11-21T07:12:33;101499.03;;;8.94;100.00
66668;BME280;57205;51.438;-2.006;2023-11-21T07:14:59;101499.03;;;8.94;100.00
66668;BME280;57205;51.438;-2.006;2023-11-21T07:17:27;101502.03;;;8.97;100.00
66668;BME280;57205;51.438;-2.006;2023-11-21T07:19:53;101504.91;;;8.96;100.00
66668;BME280;57205;51.438;-2.006;2023-11-21T07:22:20;101500.63;;;8.95;100.00
66668;BME280;57205;51.438;-2.006;2023-11-21T07:24:49;101509.22;;;8.97;100.00
66668;BME280;57205;51.438;-2.006;2023-11-21T07:27:16;101500.63;;;8.95;100.00
66668;BME280;57205;51.438;-2.006;2023-11-21T07:29:41;101510.16;;;8.91;100.00
66668;BME280;57205;51.438;-2.006;2023-11-21T07:32:07;101516.53;;;8.90;100.00
66668;BME280;57205;51.438;-2.006;2023-11-21T07:34:34;101511.19;;;8.90;100.00
66668;BME280;57205;51.438;-2.006;2023-11-21T07:37:00;101522.47;;;8.92;100.00
66668;BME280;57205;51.438;-2.006;2023-11-21T07:39:25;101522.47;;;8.92;100.00
66668;BME280;57205;51.438;-2.006;2023-11-21T07:41:51;101523.59;;;8.96;100.00
66668;BME280;57205;51.438;-2.006;2023-11-21T07:44:17;101526.97;;;8.91;100.00
66668;BME280;57205;51.438;-2.006;2023-11-21T07:46:43;101532.09;;;8.93;100.00
66668;BME280;57205;51.438;-2.006;2023-11-21T07:49:09;101538.00;;;8.95;100.00
66668;BME280;57205;51.438;-2.006;2023-11-21T07:51:35;101540.66;;;8.95;100.00
66668;BME280;57205;51.438;-2.006;2023-11-21T07:54:00;101541.25;;;8.97;100.00
66668;BME280;57205;51.438;-2.006;2023-11-21T07:56:26;101545.78;;;8.96;100.00
66668;BME280;57205;51.438;-2.006;2023-11-21T07:58:51;101546.59;;;8.97;100.00
66668;BME280;57205;51.438;-2.006;2023-11-21T08:01:17;101546.84;;;8.95;100.00
66668;BME280;57205;51.438;-2.006;2023-11-21T08:03:42;101553.53;;;8.98;100.00
66668;BME280;57205;51.438;-2.006;2023-11-21T08:06:09;101563.44;;;8.97;100.00
66668;BME280;57205;51.438;-2.006;2023-11-21T08:08:34;101561.78;;;8.96;100.00
66668;BME280;57205;51.438;-2.006;2023-11-21T08:11:00;101567.38;;;8.95;100.00
66668;BME280;57205;51.438;-2.006;2023-11-21T08:13:27;101574.09;;;8.97;100.00
66668;BME280;57205;51.438;-2.006;2023-11-21T08:15:57;101569.69;;;8.91;100.00
66668;BME280;57205;51.438;-2.006;2023-11-21T08:18:27;101580.59;;;8.90;100.00
66668;BME280;57205;51.438;-2.006;2023-11-21T08:20:54;101588.59;;;8.90;100.00
66668;BME280;57205;51.438;-2.006;2023-11-21T08:23:20;101584.75;;;8.85;100.00
66668;BME280;57205;51.438;-2.006;2023-11-21T08:25:46;101586.03;;;8.83;100.00
66668;BME280;57205;51.438;-2.006;2023-11-21T08:28:12;101588.91;;;8.81;100.00
66668;BME280;57205;51.438;-2.006;2023-11-21T08:30:41;101591.59;;;8.81;100.00
66668;BME280;57205;51.438;-2.006;2023-11-21T08:33:07;101585.66;;;8.79;100.00
66668;BME280;57205;51.438;-2.006;2023-11-21T08:35:34;101594.13;;;8.76;100.00
66668;BME280;57205;51.438;-2.006;2023-11-21T08:37:59;101598.41;;;8.77;100.00
66668;BME280;57205;51.438;-2.006;2023-11-21T08:40:25;101612.34;;;8.79;100.00
66668;BME280;57205;51.438;-2.006;2023-11-21T08:42:51;101607.38;;;8.83;100.00
66668;BME280;57205;51.438;-2.006;2023-11-21T08:45:18;101600.78;;;8.85;100.00
66668;BME280;57205;51.438;-2.006;2023-11-21T08:47:44;101621.66;;;8.88;100.00
66668;BME280;57205;51.438;-2.006;2023-11-21T08:50:10;101626.19;;;8.88;100.00
66668;BME280;57205;51.438;-2.006;2023-11-21T08:52:40;101627.56;;;8.91;100.00
66668;BME280;57205;51.438;-2.006;2023-11-21T08:55:06;101637.00;;;8.93;100.00
66668;BME280;57205;51.438;-2.006;2023-11-21T08:57:38;101640.91;;;8.91;100.00
66668;BME280;57205;51.438;-2.006;2023-11-21T09:00:04;101642.09;;;8.95;100.00
66668;BME280;57205;51.438;-2.006;2023-11-21T09:02:43;101637.94;;;8.99;100.00
66668;BME280;57205;51.438;-2.006;2023-11-21T09:05:12;101642.13;;;9.06;100.00
66668;BME280;57205;51.438;-2.006;2023-11-21T09:07:40;101629.38;;;9.08;100.00
66668;BME280;57205;51.438;-2.006;2023-11-21T09:10:11;101632.97;;;9.14;100.00
66668;BME280;57205;51.438;-2.006;2023-11-21T09:12:37;101638.91;;;9.16;100.00
66668;BME280;57205;51.438;-2.006;2023-11-21T09:15:04;101649.00;;;9.14;100.00
66668;BME280;57205;51.438;-2.006;2023-11-21T09:17:31;101653.41;;;9.20;100.00
66668;BME280;57205;51.438;-2.006;2023-11-21T09:19:56;101657.94;;;9.19;100.00
66668;BME280;57205;51.438;-2.006;2023-11-21T09:22:22;101662.00;;;9.22;100.00
66668;BME280;57205;51.438;-2.006;2023-11-21T09:24:50;101658.31;;;9.23;100.00
66668;BME280;57205;51.438;-2.006;2023-11-21T09:27:15;101667.94;;;9.24;100.00
66668;BME280;57205;51.438;-2.006;2023-11-21T09:29:42;101662.59;;;9.24;100.00
66668;BME280;57205;51.438;-2.006;2023-11-21T09:32:07;101666.19;;;9.29;100.00
66668;BME280;57205;51.438;-2.006;2023-11-21T09:34:42;101658.19;;;9.29;100.00
66668;BME280;57205;51.438;-2.006;2023-11-21T09:37:07;101671.78;;;9.28;100.00
66668;BME280;57205;51.438;-2.006;2023-11-21T09:39:33;101661.44;;;9.31;100.00
66668;BME280;57205;51.438;-2.006;2023-11-21T09:42:10;101678.75;;;9.29;100.00
66668;BME280;57205;51.438;-2.006;2023-11-21T09:47:10;101696.03;;;9.26;100.00
66668;BME280;57205;51.438;-2.006;2023-11-21T09:49:39;101680.00;;;9.26;100.00
66668;BME280;57205;51.438;-2.006;2023-11-21T09:52:07;101689.44;;;9.29;100.00
66668;BME280;57205;51.438;-2.006;2023-11-21T09:54:35;101688.97;;;9.32;100.00
66668;BME280;57205;51.438;-2.006;2023-11-21T09:57:00;101694.97;;;9.27;100.00
66668;BME280;57205;51.438;-2.006;2023-11-21T09:59:30;101701.72;;;9.30;100.00
66668;BME280;57205;51.438;-2.006;2023-11-21T10:02:01;101701.38;;;9.26;100.00
66668;BME280;57205;51.438;-2.006;2023-11-21T10:04:27;101705.66;;;9.27;100.00
66668;BME280;57205;51.438;-2.006;2023-11-21T10:06:54;101703.81;;;9.28;100.00
66668;BME280;57205;51.438;-2.006;2023-11-21T10:09:20;101713.47;;;9.29;100.00
66668;BME280;57205;51.438;-2.006;2023-11-21T10:11:47;101717.75;;;9.30;100.00
66668;BME280;57205;51.438;-2.006;2023-11-21T10:14:16;101707.31;;;9.28;100.00
66668;BME280;57205;51.438;-2.006;2023-11-21T10:16:44;101717.75;;;9.30;100.00
66668;BME280;57205;51.438;-2.006;2023-11-21T10:19:10;101714.84;;;9.31;100.00
66668;BME280;57205;51.438;-2.006;2023-11-21T10:21:37;101726.72;;;9.35;100.00
66668;BME280;57205;51.438;-2.006;2023-11-21T10:24:03;101728.56;;;9.35;100.00
66668;BME280;57205;51.438;-2.006;2023-11-21T10:26:29;101733.13;;;9.34;100.00
66668;BME280;57205;51.438;-2.006;2023-11-21T10:29:03;101732.88;;;9.36;100.00
66668;BME280;57205;51.438;-2.006;2023-11-21T10:31:29;101738.22;;;9.36;100.00
66668;BME280;57205;51.438;-2.006;2023-11-21T10:34:13;101740.53;;;9.32;100.00
66668;BME280;57205;51.438;-2.006;2023-11-21T10:36:38;101746.47;;;9.34;100.00
66668;BME280;57205;51.438;-2.006;2023-11-21T10:39:07;101743.81;;;9.34;100.00
66668;BME280;57205;51.438;-2.006;2023-11-21T10:41:32;101752.16;;;9.38;100.00
66668;BME280;57205;51.438;-2.006;2023-11-21T10:43:58;101761.78;;;9.39;100.00
66668;BME280;57205;51.438;-2.006;2023-11-21T10:46:23;101765.97;;;9.35;100.00
66668;BME280;57205;51.438;-2.006;2023-11-21T10:48:54;101757.34;;;9.33;100.00
66668;BME280;57205;51.438;-2.006;2023-11-21T10:51:21;101768.03;;;9.33;100.00
66668;BME280;57205;51.438;-2.006;2023-11-21T10:53:47;101772.03;;;9.42;100.00
66668;BME280;57205;51.438;-2.006;2023-11-21T10:56:18;101773.41;;;9.44;100.00
66668;BME280;57205;51.438;-2.006;2023-11-21T10:58:49;101768.91;;;9.45;100.00
66668;BME280;57205;51.438;-2.006;2023-11-21T11:01:18;101770.50;;;9.46;100.00
66668;BME280;57205;51.438;-2.006;2023-11-21T11:03:44;101775.28;;;9.44;100.00
66668;BME280;57205;51.438;-2.006;2023-11-21T11:06:10;101780.19;;;9.47;100.00
66668;BME280;57205;51.438;-2.006;2023-11-21T11:08:38;101784.03;;;9.51;100.00
66668;BME280;57205;51.438;-2.006;2023-11-21T11:11:05;101774.94;;;9.52;100.00
66668;BME280;57205;51.438;-2.006;2023-11-21T11:13:31;101783.09;;;9.57;100.00
66668;BME280;57205;51.438;-2.006;2023-11-21T11:16:01;101784.03;;;9.51;100.00
66668;BME280;57205;51.438;-2.006;2023-11-21T11:18:32;101780.28;;;9.52;100.00
66668;BME280;57205;51.438;-2.006;2023-11-21T11:21:10;101782.72;;;9.53;100.00
66668;BME280;57205;51.438;-2.006;2023-11-21T11:31:33;101784.72;;;9.58;100.00
66668;BME280;57205;51.438;-2.006;2023-11-21T11:34:23;101801.22;;;9.55;100.00
66668;BME280;57205;51.438;-2.006;2023-11-21T11:37:06;101793.22;;;9.55;100.00
66668;BME280;57205;51.438;-2.006;2023-11-21T11:39:38;101796.31;;;9.52;100.00
66668;BME280;57205;51.438;-2.006;2023-11-21T11:42:12;101803.91;;;9.55;100.00
66668;BME280;57205;51.438;-2.006;2023-11-21T11:47:31;101812.13;;;9.53;100.00
66668;BME280;57205;51.438;-2.006;2023-11-21T11:50:06;101819.69;;;9.56;100.00
66668;BME280;57205;51.438;-2.006;2023-11-21T11:52:37;101822.59;;;9.55;100.00
66668;BME280;57205;51.438;-2.006;2023-11-21T11:55:08;101824.22;;;9.56;100.00
66668;BME280;57205;51.438;-2.006;2023-11-21T11:57:45;101826.91;;;9.56;100.00
66668;BME280;57205;51.438;-2.006;2023-11-21T12:02:55;101834.59;;;9.64;100.00
66668;BME280;57205;51.438;-2.006;2023-11-21T12:05:26;101832.28;;;9.67;100.00
66668;BME280;57205;51.438;-2.006;2023-11-21T12:07:57;101827.75;;;9.68;100.00
66668;BME280;57205;51.438;-2.006;2023-11-21T12:10:34;101829.97;;;9.71;100.00
66668;BME280;57205;51.438;-2.006;2023-11-21T12:13:02;101843.09;;;9.72;100.00
66668;BME280;57205;51.438;-2.006;2023-11-21T12:15:28;101840.34;;;9.79;100.00
66668;BME280;57205;51.438;-2.006;2023-11-21T12:17:56;101833.94;;;9.80;100.00
66668;BME280;57205;51.438;-2.006;2023-11-21T12:20:23;101835.19;;;9.77;100.00
66668;BME280;57205;51.438;-2.006;2023-11-21T12:22:57;101833.69;;;9.81;100.00
66668;BME280;57205;51.438;-2.006;2023-11-21T12:25:29;101835.53;;;9.81;100.00
66668;BME280;57205;51.438;-2.006;2023-11-21T12:27:57;101841.72;;;9.81;100.00
66668;BME280;57205;51.438;-2.006;2023-11-21T12:30:24;101840.91;;;9.81;100.00
66668;BME280;57205;51.438;-2.006;2023-11-21T12:32:54;101848.34;;;9.79;100.00
66668;BME280;57205;51.438;-2.006;2023-11-21T12:35:23;101856.94;;;9.81;100.00
66668;BME280;57205;51.438;-2.006;2023-11-21T12:37:49;101858.34;;;9.83;100.00
66668;BME280;57205;51.438;-2.006;2023-11-21T12:40:16;101867.63;;;9.81;100.00
66668;BME280;57205;51.438;-2.006;2023-11-21T12:42:44;101855.91;;;9.82;100.00
66668;BME280;57205;51.438;-2.006;2023-11-21T12:47:42;101872.88;;;9.88;100.00
66668;BME280;57205;51.438;-2.006;2023-11-21T12:50:07;101867.66;;;9.93;100.00
66668;BME280;57205;51.438;-2.006;2023-11-21T12:52:41;101879.78;;;9.95;100.00
66668;BME280;57205;51.438;-2.006;2023-11-21T12:55:06;101885.69;;;9.97;100.00
66668;BME280;57205;51.438;-2.006;2023-11-21T12:57:33;101885.94;;;9.96;100.00